Time;durP1;ratioP1;P1;durP2;ratioP2;P2;SDS_P1;SDS_P2;PMS_P1;PMS_P2;Temp;Humidity;BMP_temperature;BMP_pressure;BME280_temperature;BME280_humidity;BME280_pressure;Samples;Min_cycle;Max_cycle;Signal;HPM_P1;HPM_P2
2024/01/19 00:01:10;;;;;;;34.22;17.98;;;-0.20;99.90;;;;;;4983718;28;20085;-75
2024/01/19 00:03:45;;;;;;;32.53;16.90;;;-0.20;99.90;;;;;;4965814;28;20081;-76
2024/01/19 00:06:11;;;;;;;32.78;17.48;;;-0.10;99.90;;;;;;4983303;28;20046;-75
2024/01/19 00:08:40;;;;;;;34.33;18.63;;;-0.10;99.90;;;;;;4983293;28;20093;-75
2024/01/19 00:11:05;;;;;;;33.40;17.45;;;0.00;99.90;;;;;;4983801;28;20045;-74
2024/01/19 00:13:32;;;;;;;33.85;17.42;;;0.00;99.90;;;;;;4983146;28;20022;-74
2024/01/19 00:16:04;;;;;;;32.22;16.83;;;0.00;99.90;;;;;;5000189;28;20027;-75
2024/01/19 00:18:38;;;;;;;37.55;17.42;;;0.00;99.90;;;;;;5001534;28;20228;-76
2024/01/19 00:21:04;;;;;;;33.38;17.05;;;0.00;99.90;;;;;;5002740;28;20108;-74
2024/01/19 00:23:30;;;;;;;33.33;16.77;;;0.00;99.90;;;;;;4998179;28;20039;-75
2024/01/19 00:25:56;;;;;;;35.88;17.40;;;0.10;99.90;;;;;;4982652;28;20057;-74
2024/01/19 00:28:24;;;;;;;33.33;16.02;;;0.00;99.90;;;;;;4982597;28;20245;-74
2024/01/19 00:30:53;;;;;;;31.65;15.60;;;0.00;99.90;;;;;;4982641;28;20041;-78
2024/01/19 00:33:22;;;;;;;32.30;17.25;;;0.00;99.90;;;;;;4984290;28;20033;-74
2024/01/19 00:35:54;;;;;;;28.88;15.93;;;-0.10;99.90;;;;;;5017516;28;20045;-76
2024/01/19 00:38:23;;;;;;;33.28;16.55;;;-0.10;99.90;;;;;;5001414;28;20073;-76
2024/01/19 00:40:52;;;;;;;37.63;17.38;;;-0.10;99.90;;;;;;4984963;28;20042;-76
2024/01/19 00:43:24;;;;;;;31.98;16.17;;;-0.10;99.90;;;;;;5001725;28;20038;-74
2024/01/19 00:45:58;;;;;;;29.10;15.80;;;-0.10;99.90;;;;;;5002080;28;20104;-75
2024/01/19 00:48:27;;;;;;;31.40;16.00;;;-0.10;99.90;;;;;;5017802;28;20023;-75
2024/01/19 00:50:56;;;;;;;30.65;16.15;;;-0.10;99.90;;;;;;4983624;28;20065;-75
2024/01/19 00:53:22;;;;;;;33.47;16.42;;;-0.10;99.90;;;;;;4966100;28;20050;-74
2024/01/19 00:55:56;;;;;;;31.63;16.25;;;-0.10;99.90;;;;;;4965762;28;20282;-74
2024/01/19 00:58:22;;;;;;;44.42;16.98;;;-0.10;99.90;;;;;;4983342;28;20029;-75
2024/01/19 01:00:48;;;;;;;28.30;15.48;;;-0.10;99.90;;;;;;4965072;28;20238;-75
2024/01/19 01:03:24;;;;;;;29.52;15.20;;;-0.10;99.90;;;;;;4981756;28;20046;-75
2024/01/19 01:05:57;;;;;;;33.58;16.23;;;-0.10;99.90;;;;;;4968032;28;20262;-75
2024/01/19 01:08:29;;;;;;;34.05;17.10;;;-0.10;99.90;;;;;;5000878;28;20221;-74
2024/01/19 01:11:04;;;;;;;33.22;17.13;;;-0.10;99.90;;;;;;5005420;28;20049;-76
2024/01/19 01:13:29;;;;;;;31.27;16.05;;;0.00;99.90;;;;;;5004650;28;20072;-75
2024/01/19 01:15:58;;;;;;;32.65;16.15;;;-0.10;99.90;;;;;;4988625;28;20030;-75
2024/01/19 01:18:24;;;;;;;32.88;17.02;;;0.00;99.90;;;;;;5005147;28;20038;-75
2024/01/19 01:20:53;;;;;;;27.50;16.23;;;0.00;99.90;;;;;;5004474;28;20030;-79
2024/01/19 01:23:19;;;;;;;32.60;16.45;;;0.00;99.90;;;;;;5004660;28;20026;-74
2024/01/19 01:25:45;;;;;;;30.13;15.25;;;0.00;99.90;;;;;;5003871;28;20097;-77
2024/01/19 01:28:11;;;;;;;30.88;15.63;;;0.00;99.90;;;;;;5005596;28;20029;-75
2024/01/19 01:30:37;;;;;;;30.42;15.98;;;0.00;99.90;;;;;;5004213;28;20045;-75
2024/01/19 01:33:06;;;;;;;27.50;14.07;;;0.00;99.90;;;;;;5005761;28;20033;-75
2024/01/19 01:35:32;;;;;;;25.75;14.90;;;0.00;99.90;;;;;;5005156;28;20030;-77
2024/01/19 01:37:58;;;;;;;28.05;15.45;;;-0.10;99.90;;;;;;5004548;28;20097;-76
2024/01/19 01:40:24;;;;;;;28.88;15.38;;;-0.10;99.90;;;;;;5004340;28;20073;-74
2024/01/19 01:42:49;;;;;;;32.40;16.40;;;-0.10;99.90;;;;;;4994790;28;20081;-74
2024/01/19 01:45:21;;;;;;;29.58;16.08;;;-0.10;99.90;;;;;;4986170;28;20030;-75
2024/01/19 01:47:49;;;;;;;28.45;16.48;;;-0.10;99.90;;;;;;4985600;28;20066;-75
2024/01/19 01:50:15;;;;;;;27.20;14.35;;;0.00;99.90;;;;;;4987832;28;20058;-76
2024/01/19 01:52:41;;;;;;;30.90;15.50;;;-0.10;99.90;;;;;;4986071;28;20042;-74
2024/01/19 01:55:10;;;;;;;29.10;15.15;;;-0.10;99.90;;;;;;4984922;28;20034;-76
2024/01/19 01:57:36;;;;;;;28.75;16.17;;;-0.10;99.90;;;;;;4985731;28;20098;-76
2024/01/19 02:00:02;;;;;;;33.45;15.68;;;-0.10;99.90;;;;;;4999451;28;20316;-76
2024/01/19 02:02:30;;;;;;;27.88;14.98;;;-0.10;99.90;;;;;;5004602;28;20026;-75
2024/01/19 02:04:55;;;;;;;32.42;15.93;;;-0.10;99.90;;;;;;5004192;28;20281;-75
2024/01/19 02:07:21;;;;;;;30.98;16.45;;;-0.10;99.90;;;;;;4998975;28;20054;-78
2024/01/19 02:09:50;;;;;;;30.52;15.98;;;-0.20;99.90;;;;;;5004476;28;20023;-74
2024/01/19 02:12:22;;;;;;;31.35;15.75;;;-0.20;99.90;;;;;;4987499;28;20026;-76
2024/01/19 02:14:51;;;;;;;28.73;16.10;;;-0.20;99.90;;;;;;5004375;28;20291;-74
2024/01/19 02:17:16;;;;;;;32.80;16.35;;;-0.20;99.90;;;;;;5003691;28;20073;-74
2024/01/19 02:19:42;;;;;;;28.75;15.48;;;-0.20;99.90;;;;;;5004051;28;20042;-75
2024/01/19 02:22:10;;;;;;;26.13;14.18;;;-0.20;99.90;;;;;;5000398;28;20014;-74
2024/01/19 02:24:36;;;;;;;29.42;15.98;;;-0.20;99.90;;;;;;4996487;28;20113;-74
2024/01/19 02:27:03;;;;;;;31.25;15.77;;;-0.20;99.90;;;;;;5004592;28;20221;-76
2024/01/19 02:29:31;;;;;;;31.17;17.33;;;-0.20;99.90;;;;;;5004254;28;20384;-74
2024/01/19 02:31:57;;;;;;;27.98;14.85;;;-0.20;99.90;;;;;;5004913;28;20038;-74
2024/01/19 02:34:25;;;;;;;30.17;15.27;;;-0.30;99.90;;;;;;5003795;28;20102;-78
2024/01/19 02:36:54;;;;;;;31.63;16.88;;;-0.30;99.90;;;;;;5003333;28;20041;-75
2024/01/19 02:39:20;;;;;;;29.63;15.60;;;-0.30;99.90;;;;;;5004595;28;20297;-77
2024/01/19 02:41:46;;;;;;;28.75;15.00;;;-0.30;99.90;;;;;;5004234;28;20098;-78
2024/01/19 02:44:24;;;;;;;39.80;17.08;;;-0.20;99.90;;;;;;5004680;28;20093;-76
2024/01/19 02:46:49;;;;;;;29.27;16.13;;;-0.30;99.90;;;;;;5001789;28;20030;-76
2024/01/19 02:49:15;;;;;;;26.02;14.60;;;-0.20;99.90;;;;;;4985049;28;20155;-78
2024/01/19 02:51:41;;;;;;;34.75;16.25;;;-0.20;99.90;;;;;;4985228;28;20045;-75
2024/01/19 02:54:09;;;;;;;29.63;14.02;;;-0.20;99.90;;;;;;4985503;28;20035;-76
2024/01/19 02:56:35;;;;;;;33.17;15.55;;;-0.30;99.90;;;;;;4985728;28;20038;-75
2024/01/19 02:59:00;;;;;;;24.33;13.68;;;-0.20;99.90;;;;;;4990448;28;20078;-77
2024/01/19 03:01:26;;;;;;;27.92;14.52;;;-0.30;99.90;;;;;;4989696;28;20037;-76
2024/01/19 03:04:02;;;;;;;25.65;14.88;;;-0.30;99.90;;;;;;5001893;28;20030;-74
2024/01/19 03:06:28;;;;;;;27.70;14.65;;;-0.40;99.90;;;;;;5009834;28;20042;-76
2024/01/19 03:11:41;;;;;;;31.90;15.00;;;-0.50;99.90;;;;;;4951023;29;20055;-74
2024/01/19 03:14:09;;;;;;;30.80;14.43;;;-0.60;99.90;;;;;;4949543;29;20048;-75
2024/01/19 03:16:44;;;;;;;30.63;15.57;;;-0.60;99.90;;;;;;4976211;28;20030;-75
2024/01/19 03:19:14;;;;;;;31.25;15.90;;;-0.60;99.90;;;;;;5003627;28;20320;-76
2024/01/19 03:21:42;;;;;;;26.25;15.27;;;-0.70;99.90;;;;;;5000514;28;20053;-77
2024/01/19 03:24:11;;;;;;;29.50;16.48;;;-0.80;99.90;;;;;;4983112;28;20023;-77
2024/01/19 03:26:42;;;;;;;33.30;17.15;;;-0.90;99.90;;;;;;4983365;28;20046;-77
2024/01/19 03:29:10;;;;;;;29.25;16.88;;;-1.10;99.90;;;;;;4983730;28;20062;-76
2024/01/19 03:31:42;;;;;;;30.65;15.70;;;-1.10;99.90;;;;;;4967097;28;20069;-77
2024/01/19 03:34:16;;;;;;;31.27;17.02;;;-1.10;99.90;;;;;;4984171;28;20038;-77
2024/01/19 03:36:54;;;;;;;28.65;15.57;;;-1.10;99.90;;;;;;4966475;28;20035;-77
2024/01/19 03:39:21;;;;;;;32.92;17.33;;;-1.00;99.90;;;;;;4984004;28;20041;-78
2024/01/19 03:41:46;;;;;;;31.98;16.70;;;-1.00;99.90;;;;;;5000368;28;20061;-75
2024/01/19 03:44:15;;;;;;;30.67;16.45;;;-0.90;99.90;;;;;;5003169;28;20053;-77
2024/01/19 03:46:41;;;;;;;34.50;17.42;;;-0.90;99.90;;;;;;5002810;28;20053;-75
2024/01/19 03:49:19;;;;;;;32.33;16.92;;;-0.90;99.90;;;;;;5003284;28;20264;-76
2024/01/19 03:52:05;;;;;;;23.40;13.27;;;-0.90;99.90;;;;;;5002892;28;20061;-78
2024/01/19 03:54:37;;;;;;;32.80;16.58;;;-0.90;99.90;;;;;;5002560;28;20030;-74
2024/01/19 03:57:09;;;;;;;34.20;18.63;;;-0.80;99.90;;;;;;4976269;28;20061;-75
2024/01/19 03:59:35;;;;;;;31.20;17.25;;;-0.70;99.90;;;;;;4983789;28;20217;-74
2024/01/19 04:02:07;;;;;;;30.83;16.50;;;-0.70;99.90;;;;;;4966653;28;20054;-75
2024/01/19 04:04:32;;;;;;;35.65;17.05;;;-0.60;99.90;;;;;;4983230;28;20026;-76
2024/01/19 04:06:58;;;;;;;28.92;16.27;;;-0.60;99.90;;;;;;4983060;28;20047;-76
2024/01/19 04:09:26;;;;;;;29.50;16.58;;;-0.50;99.90;;;;;;4984427;28;20034;-76
2024/01/19 04:11:52;;;;;;;32.80;17.77;;;-0.50;99.90;;;;;;4983898;28;20039;-76
2024/01/19 04:14:21;;;;;;;32.28;17.10;;;-0.40;99.90;;;;;;4987792;28;20054;-77
2024/01/19 04:16:50;;;;;;;27.98;15.30;;;-0.30;99.90;;;;;;4982111;28;20022;-75
2024/01/19 04:19:18;;;;;;;26.50;15.27;;;-0.40;99.90;;;;;;4983431;28;20031;-75
2024/01/19 04:21:44;;;;;;;31.15;15.18;;;-0.40;99.90;;;;;;4982650;28;20081;-76
2024/01/19 04:24:10;;;;;;;32.33;16.73;;;-0.50;99.90;;;;;;4983238;28;20050;-76
2024/01/19 04:26:41;;;;;;;27.00;15.15;;;-0.60;99.90;;;;;;4982757;28;20018;-76
2024/01/19 04:29:10;;;;;;;33.28;14.48;;;-0.70;99.90;;;;;;4966406;28;20027;-76
2024/01/19 04:31:41;;;;;;;27.75;14.73;;;-0.70;99.90;;;;;;4998884;28;20060;-75
2024/01/19 04:34:10;;;;;;;32.08;16.88;;;-0.80;99.90;;;;;;5001645;28;20062;-75
2024/01/19 04:36:37;;;;;;;31.65;16.67;;;-0.90;99.90;;;;;;5001088;28;20216;-78
2024/01/19 04:39:03;;;;;;;31.67;17.38;;;-1.00;99.90;;;;;;5003033;28;20022;-75
2024/01/19 04:41:35;;;;;;;33.03;17.33;;;-1.10;99.90;;;;;;5005033;28;20038;-75
2024/01/19 04:44:07;;;;;;;33.55;17.73;;;-1.20;99.90;;;;;;5006814;28;20084;-76
2024/01/19 04:46:35;;;;;;;35.97;18.67;;;-1.20;99.90;;;;;;5004654;28;20032;-77
2024/01/19 04:49:01;;;;;;;34.15;17.33;;;-1.20;99.90;;;;;;5006965;28;20038;-76
2024/01/19 04:51:29;;;;;;;32.15;18.27;;;-1.20;99.90;;;;;;5006721;28;20334;-77
2024/01/19 04:53:58;;;;;;;35.10;17.92;;;-1.10;99.90;;;;;;5006536;28;20064;-77
2024/01/19 04:56:29;;;;;;;34.00;18.83;;;-1.10;99.90;;;;;;5005462;28;20363;-77
2024/01/19 04:58:58;;;;;;;39.40;20.60;;;-1.10;99.90;;;;;;5006690;28;20037;-76
2024/01/19 05:01:25;;;;;;;37.47;19.83;;;-1.00;99.90;;;;;;4989352;28;20347;-76
2024/01/19 05:03:50;;;;;;;36.13;18.75;;;-0.90;99.90;;;;;;4998212;28;20018;-76
2024/01/19 05:06:19;;;;;;;35.10;18.88;;;-0.90;99.90;;;;;;4986854;28;20050;-76
2024/01/19 05:08:47;;;;;;;35.83;17.83;;;-0.70;99.90;;;;;;4986332;28;20081;-76
2024/01/19 05:11:13;;;;;;;34.90;16.95;;;-0.70;99.90;;;;;;4986987;28;20030;-77
2024/01/19 05:13:43;;;;;;;32.67;17.33;;;-0.60;99.90;;;;;;4986339;28;20030;-74
2024/01/19 05:16:16;;;;;;;32.75;17.48;;;-0.50;99.90;;;;;;4985388;28;20077;-76
2024/01/19 05:18:42;;;;;;;30.35;17.73;;;-0.50;99.90;;;;;;4985102;28;20086;-77
2024/01/19 05:21:11;;;;;;;27.70;16.30;;;-0.50;99.90;;;;;;4990895;28;20205;-77
2024/01/19 05:23:37;;;;;;;30.92;16.73;;;-0.50;99.90;;;;;;4985944;28;20309;-77
2024/01/19 05:26:05;;;;;;;26.92;16.75;;;-0.50;99.90;;;;;;4986438;28;20081;-77
2024/01/19 05:28:33;;;;;;;33.40;16.33;;;-0.50;99.90;;;;;;4985904;28;20030;-77
2024/01/19 05:31:02;;;;;;;30.27;15.73;;;-0.40;99.90;;;;;;4986629;28;20042;-76
2024/01/19 05:33:32;;;;;;;30.70;16.08;;;-0.40;99.90;;;;;;4986084;28;20074;-77
2024/01/19 05:35:58;;;;;;;29.38;14.82;;;-0.30;99.90;;;;;;4995158;28;20313;-78
2024/01/19 05:38:29;;;;;;;30.30;16.20;;;-0.30;99.90;;;;;;5003808;28;20049;-77
2024/01/19 05:41:01;;;;;;;32.83;18.17;;;-0.30;99.90;;;;;;4985794;28;20034;-75
2024/01/19 05:43:51;;;;;;;29.42;16.00;;;-0.40;99.90;;;;;;4969089;28;20085;-78
2024/01/19 05:46:16;;;;;;;31.55;17.40;;;-0.40;99.90;;;;;;4986512;28;20042;-78
2024/01/19 05:48:42;;;;;;;29.40;16.67;;;-0.40;99.90;;;;;;4985823;28;20054;-77
2024/01/19 05:51:18;;;;;;;32.45;16.85;;;-0.30;99.90;;;;;;4983943;28;20432;-74
2024/01/19 05:53:44;;;;;;;32.63;16.25;;;-0.30;99.90;;;;;;4984427;28;20038;-75
2024/01/19 05:56:10;;;;;;;31.45;16.95;;;-0.30;99.90;;;;;;4985822;28;20218;-75
2024/01/19 05:58:39;;;;;;;31.50;17.08;;;-0.30;99.90;;;;;;4990731;28;20030;-78
2024/01/19 06:01:07;;;;;;;32.97;18.40;;;-0.20;99.90;;;;;;4986014;28;20336;-77
2024/01/19 06:03:38;;;;;;;36.78;17.85;;;-0.30;99.90;;;;;;4984258;28;20392;-78
2024/01/19 06:06:13;;;;;;;35.45;18.15;;;-0.30;99.90;;;;;;4984831;28;20028;-76
2024/01/19 06:08:43;;;;;;;32.65;17.15;;;-0.30;99.90;;;;;;4968117;28;20281;-77
2024/01/19 06:11:13;;;;;;;32.80;17.38;;;-0.40;99.90;;;;;;4967358;28;20057;-76
2024/01/19 06:13:41;;;;;;;34.97;17.80;;;-0.40;99.90;;;;;;4985062;28;20042;-78
2024/01/19 06:16:07;;;;;;;34.47;16.88;;;-0.30;99.90;;;;;;4989783;28;20031;-79
2024/01/19 06:18:39;;;;;;;31.95;16.40;;;-0.20;99.90;;;;;;4967943;28;20081;-76
2024/01/19 06:21:17;;;;;;;30.20;15.77;;;-0.20;99.90;;;;;;4984316;28;20035;-77
2024/01/19 06:23:48;;;;;;;29.90;16.35;;;-0.20;99.90;;;;;;4979276;28;20241;-76
2024/01/19 06:26:14;;;;;;;27.83;15.23;;;-0.20;99.90;;;;;;5004494;28;20037;-76
2024/01/19 06:28:41;;;;;;;30.92;16.35;;;-0.20;99.90;;;;;;5004240;28;20250;-77
2024/01/19 06:31:10;;;;;;;29.80;15.98;;;-0.30;99.90;;;;;;5004949;28;20038;-77
2024/01/19 06:33:37;;;;;;;33.38;16.38;;;-0.30;99.90;;;;;;5001340;28;20050;-75
2024/01/19 06:36:09;;;;;;;25.83;15.45;;;-0.20;99.90;;;;;;4987389;28;20025;-77
2024/01/19 06:38:41;;;;;;;30.05;13.77;;;-0.30;99.90;;;;;;5004087;28;20027;-76
2024/01/19 06:41:09;;;;;;;27.63;13.63;;;-0.30;99.90;;;;;;5004233;28;20109;-75
2024/01/19 06:43:36;;;;;;;29.50;14.32;;;-0.30;99.90;;;;;;5004192;28;20041;-78
2024/01/19 06:46:05;;;;;;;25.50;14.98;;;-0.40;99.90;;;;;;4971449;28;20035;-76
2024/01/19 06:48:31;;;;;;;29.95;14.73;;;-0.40;99.90;;;;;;4986933;28;20025;-74
2024/01/19 06:50:57;;;;;;;28.33;15.10;;;-0.50;99.90;;;;;;4987373;28;20034;-74
2024/01/19 06:53:26;;;;;;;28.23;15.15;;;-0.50;99.90;;;;;;5001776;28;20042;-74
2024/01/19 06:55:57;;;;;;;27.35;14.48;;;-0.40;99.90;;;;;;4986405;28;20022;-73
2024/01/19 06:58:23;;;;;;;28.88;15.65;;;-0.40;99.90;;;;;;5003930;28;20198;-76
2024/01/19 07:00:48;;;;;;;36.20;17.77;;;-0.40;99.90;;;;;;5003036;28;20041;-76
2024/01/19 07:03:20;;;;;;;32.35;17.65;;;-0.40;99.90;;;;;;5003318;28;20245;-74
2024/01/19 07:05:45;;;;;;;33.65;17.70;;;-0.40;99.90;;;;;;4985993;28;20038;-77
2024/01/19 07:08:25;;;;;;;34.40;17.83;;;-0.40;99.90;;;;;;5002859;28;20060;-77
2024/01/19 07:10:57;;;;;;;36.88;20.25;;;-0.50;99.90;;;;;;4997981;28;20057;-76
2024/01/19 07:13:23;;;;;;;36.40;19.63;;;-0.60;99.90;;;;;;5002030;28;20038;-79
2024/01/19 07:15:48;;;;;;;33.40;18.25;;;-0.60;99.90;;;;;;5002655;28;20041;-71
2024/01/19 07:18:17;;;;;;;34.60;18.85;;;-0.60;99.90;;;;;;5002655;28;20034;-75
2024/01/19 07:20:43;;;;;;;35.88;20.05;;;-0.70;99.90;;;;;;5001379;28;20030;-76
2024/01/19 07:23:09;;;;;;;36.13;20.25;;;-0.70;99.90;;;;;;4998780;28;20049;-75
2024/01/19 07:25:35;;;;;;;38.58;19.80;;;-0.70;99.90;;;;;;4982852;28;20030;-76
2024/01/19 07:28:00;;;;;;;38.38;19.60;;;-0.70;99.90;;;;;;4985517;28;20312;-76
2024/01/19 07:30:29;;;;;;;36.75;19.02;;;-0.70;99.90;;;;;;5002945;28;20091;-75
2024/01/19 07:32:55;;;;;;;36.65;20.20;;;-0.70;99.90;;;;;;5002142;28;20018;-74
2024/01/19 07:35:26;;;;;;;35.42;19.67;;;-0.80;99.90;;;;;;5002838;28;20042;-76
2024/01/19 07:38:01;;;;;;;38.03;20.20;;;-0.80;99.90;;;;;;5002123;28;20080;-76
2024/01/19 07:40:38;;;;;;;35.67;20.08;;;-0.80;99.90;;;;;;5001653;28;20220;-76
2024/01/19 07:43:10;;;;;;;37.22;19.83;;;-0.80;99.90;;;;;;5000220;28;20026;-75
2024/01/19 07:45:42;;;;;;;36.70;19.48;;;-0.90;99.90;;;;;;5001069;28;20045;-76
2024/01/19 07:48:13;;;;;;;43.58;21.65;;;-1.00;99.90;;;;;;4971191;28;20026;-76
2024/01/19 07:50:45;;;;;;;39.17;20.42;;;-1.00;99.90;;;;;;4982688;28;20031;-77
2024/01/19 07:53:11;;;;;;;37.70;19.40;;;-1.00;99.90;;;;;;4981474;28;20031;-77
2024/01/19 07:55:39;;;;;;;35.28;19.42;;;-1.00;99.90;;;;;;4982500;28;20053;-76
2024/01/19 07:58:05;;;;;;;36.35;19.83;;;-1.00;99.90;;;;;;4991706;28;20084;-77
2024/01/19 08:00:37;;;;;;;36.85;19.33;;;-0.90;99.90;;;;;;5000109;28;20188;-74
2024/01/19 08:03:12;;;;;;;40.55;19.70;;;-0.80;99.90;;;;;;4985339;28;20038;-76
2024/01/19 08:19:11;;;;;;;35.47;16.25;;;-0.60;99.90;;;;;;5140210;27;20953;-74
2024/01/19 08:21:43;;;;;;;31.65;16.48;;;-0.20;99.90;;;;;;5135628;27;20089;-77
2024/01/19 08:24:12;;;;;;;31.52;15.82;;;-0.20;99.90;;;;;;5142259;27;20321;-75
2024/01/19 08:26:41;;;;;;;28.67;16.63;;;-0.30;99.90;;;;;;5144811;28;20095;-73
2024/01/19 08:29:09;;;;;;;31.83;16.75;;;-0.30;99.90;;;;;;5144928;27;20053;-74
2024/01/19 08:31:43;;;;;;;33.25;16.08;;;-0.20;99.90;;;;;;5149328;28;20048;-73
2024/01/19 08:34:17;;;;;;;31.70;15.93;;;-0.20;99.90;;;;;;5146144;28;20043;-75
2024/01/19 08:36:43;;;;;;;31.33;15.80;;;-0.30;99.90;;;;;;5139564;28;20314;-76
2024/01/19 08:39:15;;;;;;;32.00;16.67;;;-0.30;99.90;;;;;;5140317;28;20023;-74
2024/01/19 08:41:47;;;;;;;31.05;16.88;;;-0.40;99.90;;;;;;5121775;28;20335;-76
2024/01/19 08:44:23;;;;;;;29.35;15.23;;;-0.40;99.90;;;;;;5138270;28;20031;-75
2024/01/19 08:46:54;;;;;;;30.23;17.10;;;-0.40;99.90;;;;;;5139580;27;20046;-75
2024/01/19 08:49:30;;;;;;;32.13;17.08;;;-0.40;99.90;;;;;;5139878;27;20023;-75
2024/01/19 08:52:13;;;;;;;33.10;17.35;;;-0.40;99.90;;;;;;5122205;28;20030;-75
2024/01/19 08:54:51;;;;;;;34.28;17.60;;;-0.40;99.90;;;;;;5114713;28;20028;-75
2024/01/19 08:57:17;;;;;;;32.65;18.25;;;-0.40;99.90;;;;;;5099106;28;20051;-76
2024/01/19 08:59:49;;;;;;;31.70;17.80;;;-0.30;99.90;;;;;;5098178;28;20343;-75
2024/01/19 09:02:17;;;;;;;30.90;17.80;;;-0.20;99.90;;;;;;5098954;28;20036;-76
2024/01/19 09:04:55;;;;;;;30.55;16.13;;;-0.10;99.90;;;;;;5097571;28;20027;-75
2024/01/19 09:07:24;;;;;;;35.53;17.67;;;0.00;99.90;;;;;;5105985;28;20025;-75
2024/01/19 09:09:54;;;;;;;34.03;17.77;;;0.10;99.90;;;;;;5128832;28;20116;-75
2024/01/19 09:12:40;;;;;;;32.00;16.80;;;0.20;99.90;;;;;;5101898;28;20123;-77
2024/01/19 09:15:06;;;;;;;27.38;15.52;;;0.30;99.90;;;;;;5120841;28;20023;-76
2024/01/19 09:17:34;;;;;;;29.20;16.02;;;0.40;99.90;;;;;;5117707;28;20043;-74
2024/01/19 09:20:07;;;;;;;34.72;17.65;;;0.50;99.90;;;;;;5104969;28;20091;-75
2024/01/19 09:22:33;;;;;;;34.00;16.73;;;0.60;99.90;;;;;;5104939;28;20028;-75
2024/01/19 09:25:02;;;;;;;29.73;16.13;;;0.60;99.90;;;;;;5104515;28;20070;-74
2024/01/19 09:27:34;;;;;;;27.98;16.10;;;0.60;99.90;;;;;;5120460;28;20028;-74
2024/01/19 09:30:12;;;;;;;32.05;17.42;;;0.50;99.90;;;;;;5121410;28;20203;-74
2024/01/19 09:32:47;;;;;;;29.58;16.17;;;0.50;99.90;;;;;;5105169;28;20311;-76
2024/01/19 09:35:16;;;;;;;36.20;17.00;;;0.70;99.90;;;;;;5105163;28;20310;-74
2024/01/19 09:37:42;;;;;;;30.13;17.10;;;0.80;99.90;;;;;;5104504;28;20032;-74
2024/01/19 09:40:15;;;;;;;30.77;16.73;;;1.00;99.90;;;;;;5115686;28;20020;-77
2024/01/19 09:42:53;;;;;;;28.27;15.60;;;1.10;99.90;;;;;;5059864;28;20671;-73
2024/01/19 09:45:41;;;;;;;32.38;16.33;;;1.20;99.90;;;;;;5034498;28;20026;-76
2024/01/19 09:48:24;;;;;;;29.83;16.55;;;1.40;99.90;;;;;;5027719;28;20045;-74
2024/01/19 09:50:59;;;;;;;30.83;15.60;;;1.50;99.90;;;;;;5063413;28;20079;-76
2024/01/19 09:53:42;;;;;;;34.10;15.68;;;1.70;99.90;;;;;;5063519;28;20037;-75
2024/01/19 09:56:33;;;;;;;25.80;15.10;;;1.90;99.90;;;;;;5063177;28;20048;-74
2024/01/19 09:59:08;;;;;;;27.13;14.98;;;2.00;99.90;;;;;;5024674;28;20251;-75
2024/01/19 10:01:37;;;;;;;29.27;16.10;;;2.10;99.90;;;;;;5024204;28;20213;-75
2024/01/19 10:04:19;;;;;;;29.00;16.38;;;2.30;99.90;;;;;;5023015;28;20064;-75
2024/01/19 10:07:04;;;;;;;28.00;14.95;;;2.40;99.90;;;;;;5022868;28;20056;-75
2024/01/19 10:09:49;;;;;;;26.63;15.07;;;2.40;99.90;;;;;;5023444;28;20330;-75
2024/01/19 10:12:18;;;;;;;27.83;15.45;;;2.20;99.90;;;;;;5033197;28;20037;-76
2024/01/19 10:15:08;;;;;;;31.88;16.17;;;2.10;99.90;;;;;;5043587;28;20037;-75
2024/01/19 10:17:38;;;;;;;26.00;15.18;;;1.90;99.90;;;;;;5042721;28;20049;-76
2024/01/19 10:20:16;;;;;;;28.80;15.65;;;1.80;99.90;;;;;;5032652;28;20029;-75
2024/01/19 10:22:45;;;;;;;27.33;15.60;;;1.80;99.90;;;;;;5031447;28;20033;-76
2024/01/19 10:25:18;;;;;;;30.08;15.70;;;1.60;99.90;;;;;;5027969;28;20033;-75
2024/01/19 10:27:56;;;;;;;29.48;16.13;;;1.50;99.90;;;;;;5030483;28;20367;-76
2024/01/19 10:30:29;;;;;;;31.70;16.55;;;1.60;99.90;;;;;;5040667;28;20079;-75
2024/01/19 10:33:12;;;;;;;31.48;16.25;;;1.70;99.90;;;;;;5058032;28;20108;-76
2024/01/19 10:35:42;;;;;;;27.75;15.73;;;1.80;99.90;;;;;;5021593;28;20041;-76
2024/01/19 10:38:11;;;;;;;28.70;15.93;;;2.00;99.90;;;;;;5022018;28;20042;-76
2024/01/19 10:40:39;;;;;;;28.52;14.95;;;2.00;99.90;;;;;;5021703;28;20037;-75
2024/01/19 10:43:21;;;;;;;31.15;16.20;;;2.00;99.90;;;;;;5005882;28;20109;-76
2024/01/19 10:46:17;;;;;;;32.40;15.68;;;2.00;99.90;;;;;;5022847;28;20131;-77
2024/01/19 10:49:13;;;;;;;28.45;16.20;;;2.10;99.90;;;;;;5017316;28;20090;-76
2024/01/19 10:51:56;;;;;;;27.35;15.13;;;2.30;99.90;;;;;;5029502;28;20056;-76
2024/01/19 10:55:00;;;;;;;30.00;16.33;;;2.50;99.90;;;;;;5056937;28;20052;-76
2024/01/19 10:57:35;;;;;;;25.20;14.80;;;2.70;99.90;;;;;;5042256;28;20044;-76
2024/01/19 11:00:38;;;;;;;30.20;15.30;;;3.00;99.90;;;;;;5042804;28;20048;-76
2024/01/19 11:03:24;;;;;;;28.30;14.93;;;3.20;99.90;;;;;;5041864;28;20113;-75
2024/01/19 11:06:03;;;;;;;25.20;13.63;;;3.60;99.90;;;;;;5017259;28;20041;-77
2024/01/19 11:08:48;;;;;;;26.13;13.32;;;3.90;99.90;;;;;;5041483;28;20052;-77
2024/01/19 11:11:35;;;;;;;23.50;12.98;;;4.20;99.40;;;;;;5041748;28;20223;-78
2024/01/19 11:14:10;;;;;;;22.10;14.00;;;4.50;98.80;;;;;;5042844;28;20041;-76
2024/01/19 11:56:56;;;;;;;19.48;12.50;;;3.30;98.10;;;;;;5651801;23;20332;-78
2024/01/19 12:00:02;;;;;;;20.75;12.25;;;3.40;98.30;;;;;;4985889;28;20030;-80
2024/01/19 12:10:24;;;;;;;21.15;12.07;;;3.30;98.20;;;;;;4969967;28;20241;-83
2024/01/19 12:17:18;;;;;;;21.88;12.15;;;3.50;97.90;;;;;;4984791;28;20078;-84
2024/01/19 12:24:14;;;;;;;20.50;12.32;;;3.40;97.80;;;;;;4994968;28;20212;-82
2024/01/19 12:26:59;;;;;;;19.42;11.30;;;3.40;98.40;;;;;;5017754;28;20058;-80
2024/01/19 12:29:36;;;;;;;21.90;11.98;;;3.50;97.60;;;;;;5017246;28;20049;-81
2024/01/19 12:32:52;;;;;;;23.52;11.77;;;3.50;97.50;;;;;;5004820;28;20023;-81
2024/01/19 12:35:30;;;;;;;19.92;10.20;;;3.60;97.30;;;;;;4991253;28;20057;-78
2024/01/19 12:38:22;;;;;;;22.33;10.90;;;3.80;96.90;;;;;;4998380;28;20061;-78
2024/01/19 12:40:57;;;;;;;20.02;11.40;;;4.50;96.60;;;;;;4960884;28;20428;-78
2024/01/19 12:43:38;;;;;;;16.48;10.20;;;4.90;95.10;;;;;;4983361;28;20373;-78
2024/01/19 12:46:24;;;;;;;16.52;9.93;;;5.40;94.70;;;;;;4983463;28;20034;-79
2024/01/19 12:49:02;;;;;;;16.95;10.18;;;5.60;93.80;;;;;;4998171;28;20268;-76
2024/01/19 14:54:19;;;;;;;18.92;10.35;;;2.70;98.60;;;;;;5162134;23;20274;-80
2024/01/19 14:57:02;;;;;;;16.17;9.60;;;3.50;97.00;;;;;;4965868;28;20325;-77
2024/01/19 15:02:53;;;;;;;18.30;9.25;;;4.40;94.30;;;;;;4983940;28;20037;-76
2024/01/19 15:05:31;;;;;;;17.60;9.70;;;4.00;94.20;;;;;;4984030;28;20027;-76
2024/01/19 15:08:13;;;;;;;16.23;9.30;;;3.60;94.60;;;;;;4966899;28;20513;-77
2024/01/19 15:10:41;;;;;;;17.00;9.82;;;3.20;95.20;;;;;;4961168;28;20054;-77
2024/01/19 15:13:14;;;;;;;19.70;10.70;;;2.70;96.00;;;;;;4967363;28;20026;-76
2024/01/19 15:15:42;;;;;;;17.67;9.85;;;2.30;96.80;;;;;;4983456;28;20367;-76
2024/01/19 15:18:30;;;;;;;19.42;10.27;;;1.90;97.40;;;;;;4998322;28;20327;-77
2024/01/19 15:21:11;;;;;;;21.57;11.00;;;1.50;98.10;;;;;;4986619;28;20034;-77
2024/01/19 15:23:38;;;;;;;21.15;10.80;;;1.20;99.10;;;;;;4978988;28;20053;-77
2024/01/19 15:26:36;;;;;;;21.27;10.93;;;1.00;99.50;;;;;;4981630;28;20086;-78
2024/01/19 15:29:41;;;;;;;21.45;11.63;;;0.90;99.90;;;;;;4982677;28;20097;-77
2024/01/19 15:32:12;;;;;;;23.60;11.63;;;0.70;99.90;;;;;;4982510;28;20034;-78
2024/01/19 15:34:42;;;;;;;25.48;13.35;;;0.50;99.90;;;;;;4982359;28;20094;-77
2024/01/19 15:37:19;;;;;;;26.75;13.80;;;0.40;99.90;;;;;;4982270;28;20034;-77
2024/01/19 15:39:51;;;;;;;22.25;10.45;;;0.30;99.90;;;;;;4949837;28;20034;-77
2024/01/19 15:42:48;;;;;;;21.65;11.68;;;0.10;99.90;;;;;;4969213;28;20033;-75
2024/01/19 15:45:20;;;;;;;25.80;14.70;;;0.00;99.90;;;;;;4982092;28;20390;-78
2024/01/19 15:47:49;;;;;;;27.70;13.65;;;0.00;99.90;;;;;;4981949;28;20061;-76
2024/01/19 15:50:20;;;;;;;25.83;13.25;;;0.10;99.90;;;;;;4983501;28;20026;-76
2024/01/19 15:53:13;;;;;;;26.30;13.57;;;0.10;99.90;;;;;;4982787;28;20046;-78
2024/01/19 15:55:39;;;;;;;27.55;13.82;;;0.10;99.90;;;;;;4960711;28;20116;-79
2024/01/19 15:58:08;;;;;;;24.05;13.88;;;0.00;99.90;;;;;;4965985;28;20027;-80
2024/01/19 16:00:42;;;;;;;28.02;13.95;;;0.00;99.90;;;;;;4965927;28;20097;-78
2024/01/19 16:03:09;;;;;;;27.25;14.15;;;-0.10;99.90;;;;;;4950260;28;20042;-82
2024/01/19 16:05:35;;;;;;;28.00;14.95;;;-0.20;99.90;;;;;;4982736;28;20062;-78
2024/01/19 16:08:13;;;;;;;24.35;13.55;;;-0.20;99.90;;;;;;4949982;28;20027;-80
2024/01/19 16:10:39;;;;;;;25.38;12.57;;;-0.30;99.90;;;;;;4981958;28;20027;-80
2024/01/19 16:13:05;;;;;;;26.67;13.75;;;-0.20;99.90;;;;;;4982826;28;20030;-81